»·PEaware :: N129MO KSBA-KDFW

N129MO :: KSBA-KDFW

FLIGHT INFORMATION

Flight Status: Arrived
Operator: Privately registered:
United States
More flights under this callsign
Pilot: Michael O. (129)
Aircraft: BOEING 737-400
(B734)
More flights by this aircraft type
Origin: KSBA Santa Barbara Mun
United States
Destination: KDFW Dallas-Ft Worth Intl
United States
More flights between these airports :: More routes between these airports
Route: +PMD J6 ABQ J72 TXO UKW1
File this flight plan on PilotEdge
Remarks:
Altitude:
(Current/Filed)
31,000ft
Speed:
(Current/Filed)
400kts
Departed: 20-Oct-11 07:41 PM
Arrived: 20-Oct-11 10:47 PM
Distance/Time
Traveled:
1140nm/3:06
Distance/Time
To Go:
Arrived

Flight Plot

Page will automatically refresh every two minutes.

Flight plan parsing failed; only flown route is shown


Map Options




Map Legend


Flown Route
Filed Route
Departure Airport
Arrival Airport
Navaid (VOR, NDB)
Fix

Horizontal Profiles

Position Reports

Time Latitude Longitude Heading Altitude Ground
Speed
20-Oct-11 19:25 34.425581 -119.837295 345 16ft 0kts
20-Oct-11 19:26 34.425581 -119.837295 345 16ft 0kts
20-Oct-11 19:27 34.425581 -119.837295 345 16ft 0kts
20-Oct-11 19:28 34.425581 -119.837295 345 16ft 0kts
20-Oct-11 19:29 34.425581 -119.837295 345 16ft 0kts
20-Oct-11 19:29 34.425581 -119.837295 345 16ft 0kts
20-Oct-11 19:30 34.425581 -119.837295 345 16ft 0kts
20-Oct-11 19:31 34.425581 -119.837295 345 16ft 0kts
20-Oct-11 19:32 34.426668 -119.840689 267 16ft 20kts
20-Oct-11 19:33 34.426573 -119.845830 269 16ft 13kts
20-Oct-11 19:34 34.426476 -119.851097 268 16ft 26kts
20-Oct-11 19:35 34.426768 -119.854443 359 16ft 0kts
20-Oct-11 19:36 34.427526 -119.853185 91 16ft 12kts
20-Oct-11 19:37 34.427450 -119.820515 99 899ft 229kts
20-Oct-11 19:38 34.399592 -119.747209 115 3692ft 254kts
20-Oct-11 19:39 34.372529 -119.678231 115 6163ft 264kts
20-Oct-11 19:40 34.344153 -119.604771 115 10373ft 285kts
20-Oct-11 19:41 34.310654 -119.515946 103 16134ft 310kts
20-Oct-11 19:42 34.316659 -119.416915 84 20505ft 334kts
20-Oct-11 19:43 34.325348 -119.303732 84 24605ft 356kts
20-Oct-11 19:44 34.333775 -119.192524 84 27380ft 372kts
20-Oct-11 19:45 34.347421 -119.087226 70 28987ft 397kts
20-Oct-11 19:46 34.375911 -118.986159 70 29106ft 459kts
20-Oct-11 19:47 34.409618 -118.866318 70 30368ft 492kts
20-Oct-11 19:48 34.443811 -118.744229 70 31057ft 486kts
20-Oct-11 19:49 34.481378 -118.609492 70 31062ft 486kts
20-Oct-11 19:50 34.511673 -118.500348 70 31063ft 487kts
20-Oct-11 19:51 34.548168 -118.367676 70 31060ft 487kts
20-Oct-11 19:53 34.587500 -118.224630 70 31060ft 487kts
20-Oct-11 19:54 34.619411 -118.108040 70 31061ft 487kts
20-Oct-11 19:55 34.639826 -117.988608 82 31062ft 488kts
20-Oct-11 19:56 34.657386 -117.827103 82 31052ft 507kts
20-Oct-11 19:57 34.675289 -117.660818 82 31053ft 509kts
20-Oct-11 19:58 34.693236 -117.491903 82 31054ft 511kts
20-Oct-11 19:59 34.710130 -117.329194 83 31050ft 512kts
20-Oct-11 20:00 34.727552 -117.160823 83 31051ft 512kts
20-Oct-11 20:01 34.744909 -116.990710 83 31052ft 512kts
20-Oct-11 20:02 34.760201 -116.839181 85 31019ft 490kts
20-Oct-11 20:03 34.773039 -116.709688 84 31017ft 475kts
20-Oct-11 20:04 34.788407 -116.553312 84 31016ft 469kts
20-Oct-11 20:05 34.796974 -116.420274 92 31034ft 466kts
20-Oct-11 20:06 34.795495 -116.271363 90 31019ft 467kts
20-Oct-11 20:07 34.794186 -116.132355 90 31018ft 467kts
20-Oct-11 20:08 34.792773 -115.998216 90 31018ft 467kts
20-Oct-11 20:09 34.791422 -115.877029 92 31085ft 466kts
20-Oct-11 20:09 34.789506 -115.728529 93 31087ft 477kts
20-Oct-11 20:10 34.787826 -115.607940 94 31088ft 486kts
20-Oct-11 20:12 34.785058 -115.425895 94 31089ft 495kts
20-Oct-11 20:12 34.782779 -115.295003 94 31088ft 499kts
20-Oct-11 20:13 34.780251 -115.150074 94 31089ft 501kts
20-Oct-11 20:14 34.776980 -114.975570 94 31090ft 503kts
20-Oct-11 20:15 34.773600 -114.809097 92 30983ft 509kts
20-Oct-11 20:17 34.769329 -114.611049 91 30984ft 509kts
20-Oct-11 20:17 34.765983 -114.465637 91 30985ft 509kts
20-Oct-11 20:18 34.761855 -114.301809 91 30980ft 508kts
20-Oct-11 20:19 34.757892 -114.146428 91 30981ft 508kts
20-Oct-11 20:20 34.753278 -113.974721 91 30982ft 508kts
20-Oct-11 20:21 34.748365 -113.801006 91 30983ft 507kts
20-Oct-11 20:22 34.743360 -113.632382 91 30984ft 507kts
20-Oct-11 20:23 34.738225 -113.467016 91 30985ft 507kts
20-Oct-11 20:24 34.732752 -113.303217 92 30980ft 507kts
20-Oct-11 20:25 34.727328 -113.141338 94 31140ft 504kts
20-Oct-11 20:26 34.721319 -112.970633 95 31140ft 497kts
20-Oct-11 20:27 34.715218 -112.803717 95 31139ft 491kts
20-Oct-11 20:28 34.709084 -112.642029 96 31139ft 488kts
20-Oct-11 20:29 34.702824 -112.478670 93 31134ft 487kts
20-Oct-11 20:30 34.717564 -112.318341 87 31137ft 490kts
20-Oct-11 20:31 34.732393 -112.155628 87 31137ft 489kts
20-Oct-11 20:32 34.747013 -111.992774 87 31138ft 489kts
20-Oct-11 20:33 34.761825 -111.824282 83 31252ft 506kts
20-Oct-11 20:34 34.776073 -111.661333 82 31252ft 493kts
20-Oct-11 20:36 34.790343 -111.494878 82 31251ft 486kts
20-Oct-11 20:37 34.803170 -111.340727 83 31250ft 484kts
20-Oct-11 20:38 34.815335 -111.194210 83 31250ft 484kts
20-Oct-11 20:39 34.830130 -111.013024 83 31250ft 483kts
20-Oct-11 20:40 34.843225 -110.849808 83 31250ft 483kts
20-Oct-11 20:41 34.856122 -110.686277 83 31250ft 483kts
20-Oct-11 20:42 34.868462 -110.527109 83 31250ft 483kts
20-Oct-11 20:43 34.880686 -110.364583 84 31250ft 483kts
20-Oct-11 20:44 34.892775 -110.202578 83 31220ft 485kts
20-Oct-11 20:45 34.904940 -110.037795 84 31222ft 502kts
20-Oct-11 20:46 34.917175 -109.868182 85 31223ft 508kts
20-Oct-11 20:47 34.929317 -109.696293 86 31224ft 508kts
20-Oct-11 20:48 34.941133 -109.525594 86 31224ft 508kts
20-Oct-11 20:49 34.952225 -109.359669 87 31220ft 507kts
20-Oct-11 20:50 34.963370 -109.191938 88 31221ft 506kts
20-Oct-11 20:51 34.971518 -109.020932 89 31222ft 505kts
20-Oct-11 20:52 34.978170 -108.860288 89 31222ft 505kts
20-Oct-11 20:52 34.984167 -108.710840 89 31223ft 505kts
20-Oct-11 20:53 34.990658 -108.542115 88 31312ft 506kts
20-Oct-11 20:54 34.996764 -108.375554 86 31320ft 494kts
20-Oct-11 20:55 35.002768 -108.209796 86 31320ft 484kts
20-Oct-11 20:56 35.008379 -108.048319 86 31320ft 480kts
20-Oct-11 20:57 35.012910 -107.912412 86 31328ft 479kts
20-Oct-11 20:58 35.018912 -107.725987 85 31330ft 481kts
20-Oct-11 20:59 35.023971 -107.561536 85 31330ft 482kts
20-Oct-11 21:00 35.028417 -107.406634 86 31330ft 483kts
20-Oct-11 21:01 35.032838 -107.247656 85 31330ft 483kts
20-Oct-11 21:02 35.037252 -107.082939 85 31330ft 483kts
20-Oct-11 21:03 35.041404 -106.919815 85 31330ft 483kts
20-Oct-11 21:04 35.037410 -106.761100 96 31341ft 487kts
20-Oct-11 21:05 35.017546 -106.599263 95 31331ft 487kts
20-Oct-11 21:06 34.998178 -106.441979 96 31331ft 487kts
20-Oct-11 21:07 34.977581 -106.277878 96 31240ft 495kts
20-Oct-11 21:08 34.956734 -106.112350 96 31241ft 496kts
20-Oct-11 21:09 34.935599 -105.946521 96 31241ft 497kts
20-Oct-11 21:10 34.913917 -105.778294 96 31242ft 497kts
20-Oct-11 21:11 34.892640 -105.615019 96 31242ft 497kts
20-Oct-11 21:12 34.870561 -105.447413 96 31243ft 497kts
20-Oct-11 21:13 34.849138 -105.287759 97 31241ft 497kts
20-Oct-11 21:15 34.827091 -105.123881 97 31241ft 498kts
20-Oct-11 21:16 34.804207 -104.955597 97 31278ft 495kts
20-Oct-11 21:17 34.782220 -104.795539 97 31291ft 489kts
20-Oct-11 21:18 34.759683 -104.633140 97 31291ft 487kts
20-Oct-11 21:19 34.736788 -104.469826 97 31291ft 486kts
20-Oct-11 21:20 34.714716 -104.315099 98 31291ft 485kts
20-Oct-11 21:21 34.691428 -104.152173 98 31291ft 485kts
20-Oct-11 21:22 34.668590 -103.993939 98 31291ft 485kts
20-Oct-11 21:23 34.645255 -103.833794 98 31291ft 485kts
20-Oct-11 21:24 34.621133 -103.669834 98 31291ft 485kts
20-Oct-11 21:25 34.597764 -103.512481 98 31291ft 485kts
20-Oct-11 21:26 34.573984 -103.354932 98 31275ft 485kts
20-Oct-11 21:27 34.549432 -103.192191 102 31159ft 488kts
20-Oct-11 21:28 34.525551 -103.036251 102 31156ft 464kts
20-Oct-11 21:29 34.502171 -102.884501 101 31194ft 450kts
20-Oct-11 21:30 34.471854 -102.611563 97 31193ft 447kts
20-Oct-11 21:31 34.456063 -102.459862 97 31193ft 446kts
20-Oct-11 21:32 34.440856 -102.317064 97 31198ft 446kts
20-Oct-11 21:33 34.424887 -102.167231 97 31197ft 445kts
20-Oct-11 21:34 34.408878 -102.018770 97 31196ft 445kts
20-Oct-11 21:35 34.393240 -101.875379 97 31195ft 445kts
20-Oct-11 21:36 34.376531 -101.723897 97 31194ft 445kts
20-Oct-11 21:37 34.360472 -101.579942 97 31193ft 445kts
20-Oct-11 21:38 34.346625 -101.436938 103 31110ft 444kts
20-Oct-11 21:39 34.304056 -101.299831 109 31149ft 445kts
20-Oct-11 21:40 34.261911 -101.162678 109 30562ft 429kts
20-Oct-11 21:41 34.218600 -101.022367 109 30339ft 440kts
20-Oct-11 21:42 34.176124 -100.885408 109 29817ft 436kts
20-Oct-11 21:43 34.133729 -100.749333 109 29288ft 431kts
20-Oct-11 21:44 34.091880 -100.615616 109 28757ft 427kts
20-Oct-11 21:45 34.050771 -100.484839 109 28227ft 423kts
20-Oct-11 21:46 34.010459 -100.357665 110 27721ft 419kts
20-Oct-11 21:47 33.968657 -100.225825 110 27205ft 416kts
20-Oct-11 21:48 33.928432 -100.099473 110 26699ft 412kts
20-Oct-11 21:49 33.886943 -99.969711 110 26168ft 406kts
20-Oct-11 21:50 33.846854 -99.844857 110 25643ft 402kts
20-Oct-11 21:51 33.806863 -99.720811 110 25108ft 398kts
20-Oct-11 21:52 33.766231 -99.595282 110 24556ft 394kts
20-Oct-11 21:53 33.726878 -99.474194 110 24012ft 391kts
20-Oct-11 21:54 33.688272 -99.356369 111 23498ft 388kts
20-Oct-11 21:55 33.648896 -99.236149 111 22982ft 386kts
20-Oct-11 21:56 33.609841 -99.117353 111 22463ft 383kts
20-Oct-11 21:59 33.532095 -98.882225 111 21410ft 379kts
20-Oct-11 22:00 33.492747 -98.763896 110 20871ft 378kts
20-Oct-11 22:01 33.454259 -98.648560 110 20343ft 377kts
20-Oct-11 22:02 33.415070 -98.531561 110 19803ft 375kts
20-Oct-11 22:03 33.377944 -98.421225 110 19287ft 372kts
20-Oct-11 22:04 33.340798 -98.311531 110 18802ft 370kts
20-Oct-11 22:05 33.302031 -98.197018 110 18288ft 367kts
20-Oct-11 22:06 33.263931 -98.084877 110 17776ft 364kts
20-Oct-11 22:07 33.225744 -97.972875 110 17257ft 361kts
20-Oct-11 22:08 33.188462 -97.863900 110 16745ft 359kts
20-Oct-11 22:09 33.150196 -97.752428 110 16217ft 356kts
20-Oct-11 22:10 33.113342 -97.645395 111 15702ft 353kts
20-Oct-11 22:10 33.081996 -97.554697 112 15263ft 352kts
20-Oct-11 22:11 33.044700 -97.447102 112 14740ft 350kts
20-Oct-11 22:12 33.010536 -97.349331 113 14278ft 348kts
20-Oct-11 22:13 32.973895 -97.244283 113 13778ft 346kts
20-Oct-11 22:14 32.942151 -97.153545 113 13341ft 344kts
20-Oct-11 22:15 32.915749 -97.078263 113 12976ft 343kts
20-Oct-11 22:17 32.880561 -96.978201 113 12485ft 341kts
20-Oct-11 22:17 32.854385 -96.904018 112 12118ft 341kts
20-Oct-11 22:18 32.817931 -96.800881 111 11608ft 340kts
20-Oct-11 22:19 32.783510 -96.703834 111 10845ft 283kts
20-Oct-11 22:20 32.753500 -96.619418 111 8520ft 279kts
20-Oct-11 22:21 32.725577 -96.541075 111 6420ft 272kts
20-Oct-11 22:22 32.699308 -96.467570 111 6017ft 265kts
20-Oct-11 22:23 32.677201 -96.406138 112 6018ft 266kts
20-Oct-11 22:24 32.649381 -96.328770 112 6018ft 266kts
20-Oct-11 22:25 32.632525 -96.247274 59 6031ft 265kts
20-Oct-11 22:26 32.680121 -96.238925 317 6033ft 273kts
20-Oct-11 22:27 32.681966 -96.241107 311 6033ft 274kts
20-Oct-11 22:28 32.699058 -96.325054 287 6040ft 269kts
20-Oct-11 22:29 32.722308 -96.407523 288 6038ft 269kts
20-Oct-11 22:30 32.732643 -96.490923 274 6039ft 270kts
20-Oct-11 22:31 32.732761 -96.571774 259 4688ft 269kts
20-Oct-11 22:32 32.725164 -96.652130 272 4123ft 259kts
20-Oct-11 22:33 32.727256 -96.713899 271 4112ft 209kts
20-Oct-11 22:34 32.709184 -96.774617 267 4109ft 211kts
20-Oct-11 22:35 32.707552 -96.841087 268 4120ft 211kts
20-Oct-11 22:36 32.706075 -96.907302 268 4120ft 211kts
20-Oct-11 22:37 32.704656 -96.970471 268 4100ft 210kts
20-Oct-11 22:38 32.713172 -97.030952 295 2671ft 205kts
20-Oct-11 22:39 32.760969 -97.051930 2 2649ft 204kts
20-Oct-11 22:41 32.809302 -97.051215 1 1954ft 145kts
20-Oct-11 22:42 32.848898 -97.051034 1 1246ft 145kts
20-Oct-11 22:43 32.886880 -97.050889 1 629ft 135kts
20-Oct-11 22:44 32.900940 -97.048790 51 613ft 15kts
20-Oct-11 22:45 32.901643 -97.046288 60 613ft 0kts

Navigation Log

Ident Type
Flight plan parsing failed, navigation log unavailable